»·PEaware :: N48427 KSBA-KBUR

N48427 :: KSBA-KBUR

FLIGHT INFORMATION

Flight Status: Arrived
Operator: Privately registered:
United States
More flights under this callsign
Pilot: Mike E. (18363)
Aircraft: Unknown
(P28U)
More flights by this aircraft type
Origin: KSBA Santa Barbara Mun
United States
Destination: KBUR Bob Hope-Burbank
United States
More flights between these airports :: More routes between these airports
Route: VTU
File this flight plan on PilotEdge
Remarks:
Altitude:
(Current/Filed)
5,500ft
Speed:
(Current/Filed)
145kts
Departed: 13-Mar-18 07:31 PM
Arrived: 13-Mar-18 08:15 PM
Distance/Time
Traveled:
75nm/0:44
Distance/Time
To Go:
Arrived

Flight Plot

Page will automatically refresh every two minutes.

Flight plan parsing failed; only flown route is shown


Map Options




Map Legend


Flown Route
Filed Route
Departure Airport
Arrival Airport
Navaid (VOR, NDB)
Fix

Horizontal Profiles

Position Reports

Time Latitude Longitude Heading Altitude Ground
Speed
13-Mar-18 19:18 34.422674 -119.835667 268 15ft 0kts
13-Mar-18 19:19 34.422674 -119.835667 268 15ft 0kts
13-Mar-18 19:20 34.422674 -119.835667 268 15ft 0kts
13-Mar-18 19:21 34.422674 -119.835667 268 15ft 0kts
13-Mar-18 19:22 34.422674 -119.835666 268 15ft 0kts
13-Mar-18 19:23 34.422674 -119.835666 268 15ft 0kts
13-Mar-18 19:24 34.422674 -119.835666 268 15ft 0kts
13-Mar-18 19:25 34.422674 -119.835666 268 15ft 0kts
13-Mar-18 19:26 34.422674 -119.835667 268 15ft 0kts
13-Mar-18 19:27 34.424252 -119.837597 345 15ft 22kts
13-Mar-18 19:28 34.426815 -119.834787 57 15ft 6kts
13-Mar-18 19:29 34.427102 -119.834619 358 15ft 0kts
13-Mar-18 19:30 34.427877 -119.836191 268 15ft 44kts
13-Mar-18 19:31 34.427444 -119.863715 268 1013ft 88kts
13-Mar-18 19:32 34.428880 -119.899614 311 1733ft 110kts
13-Mar-18 19:33 34.448673 -119.889249 77 2930ft 102kts
13-Mar-18 19:34 34.455344 -119.860207 77 3999ft 102kts
13-Mar-18 19:35 34.459315 -119.826023 87 5028ft 107kts
13-Mar-18 19:36 34.464505 -119.786384 86 5517ft 141kts
13-Mar-18 19:37 34.465135 -119.742702 110 5502ft 143kts
13-Mar-18 19:38 34.458853 -119.697888 103 5509ft 145kts
13-Mar-18 19:39 34.449496 -119.651042 129 5506ft 140kts
13-Mar-18 19:40 34.427139 -119.613148 126 5508ft 136kts
13-Mar-18 19:41 34.405972 -119.574945 126 5508ft 136kts
13-Mar-18 19:42 34.384950 -119.536828 126 5508ft 136kts
13-Mar-18 19:43 34.363980 -119.498800 126 5508ft 136kts
13-Mar-18 19:44 34.347763 -119.469410 126 5508ft 136kts
13-Mar-18 19:45 34.326678 -119.431230 126 5508ft 136kts
13-Mar-18 19:46 34.305638 -119.393171 126 5508ft 136kts
13-Mar-18 19:47 34.284588 -119.355136 126 5508ft 136kts
13-Mar-18 19:48 34.266922 -119.323252 126 5509ft 136kts
13-Mar-18 19:49 34.245849 -119.285248 126 5509ft 136kts
13-Mar-18 19:50 34.224753 -119.247243 126 5509ft 136kts
13-Mar-18 19:51 34.203786 -119.209137 126 5509ft 136kts
13-Mar-18 19:52 34.182662 -119.171049 126 5509ft 136kts
13-Mar-18 19:53 34.161508 -119.133034 126 5508ft 136kts
13-Mar-18 19:54 34.140421 -119.095200 126 5508ft 136kts
13-Mar-18 19:55 34.119216 -119.057200 126 5508ft 136kts
13-Mar-18 19:56 34.120198 -119.010560 87 5508ft 143kts
13-Mar-18 19:57 34.125676 -118.965726 85 5508ft 144kts
13-Mar-18 19:58 34.152040 -118.927007 73 5504ft 147kts
13-Mar-18 19:59 34.154091 -118.880771 94 5171ft 134kts
13-Mar-18 20:00 34.153364 -118.835972 94 4253ft 134kts
13-Mar-18 20:01 34.150777 -118.791913 96 3492ft 121kts
13-Mar-18 20:02 34.147737 -118.752015 96 3507ft 120kts
13-Mar-18 20:03 34.147724 -118.711668 81 3507ft 122kts
13-Mar-18 20:04 34.153814 -118.671443 79 3506ft 122kts
13-Mar-18 20:05 34.170704 -118.632863 65 3035ft 131kts
13-Mar-18 20:06 34.185575 -118.596924 65 3012ft 117kts
13-Mar-18 20:07 34.197875 -118.561439 85 3011ft 114kts
13-Mar-18 20:08 34.199257 -118.523326 91 3012ft 113kts
13-Mar-18 20:09 34.199153 -118.487635 90 2925ft 102kts
13-Mar-18 20:10 34.198978 -118.454162 90 2159ft 91kts
13-Mar-18 20:11 34.198817 -118.425684 90 1686ft 81kts
13-Mar-18 20:12 34.198540 -118.399902 89 1371ft 81kts
13-Mar-18 20:13 34.197994 -118.373786 90 855ft 71kts
13-Mar-18 20:14 34.198654 -118.360406 355 733ft 0kts
13-Mar-18 20:15 34.198799 -118.360371 27 733ft 10kts
13-Mar-18 20:16 34.199669 -118.359436 83 733ft 0kts
13-Mar-18 20:17 34.199669 -118.359436 83 733ft 0kts
13-Mar-18 20:18 34.199669 -118.359436 83 733ft 0kts
13-Mar-18 20:19 34.199669 -118.359436 83 733ft 0kts
13-Mar-18 20:20 34.199669 -118.359436 83 733ft 0kts
13-Mar-18 20:21 34.199669 -118.359436 83 733ft 0kts
13-Mar-18 20:22 34.199669 -118.359436 83 733ft 0kts
13-Mar-18 20:23 34.199669 -118.359436 83 733ft 0kts
13-Mar-18 20:24 34.199669 -118.359436 83 733ft 0kts

Navigation Log

Ident Type
Flight plan parsing failed, navigation log unavailable